sensor_id;sensor_type;location;lat;lon;timestamp;temperature;humidity
10986;DHT22;5546;48.714;8.738;2022-11-15T00:01:38;9.70;99.90
10986;DHT22;5546;48.714;8.738;2022-11-15T00:04:04;9.60;99.90
10986;DHT22;5546;48.714;8.738;2022-11-15T00:06:30;9.80;99.90
10986;DHT22;5546;48.714;8.738;2022-11-15T00:08:58;9.80;99.70
10986;DHT22;5546;48.714;8.738;2022-11-15T00:11:24;10.00;99.50
10986;DHT22;5546;48.714;8.738;2022-11-15T00:13:49;10.10;99.20
10986;DHT22;5546;48.714;8.738;2022-11-15T00:16:15;10.10;99.00
10986;DHT22;5546;48.714;8.738;2022-11-15T00:18:40;10.10;98.90
10986;DHT22;5546;48.714;8.738;2022-11-15T00:21:09;10.00;99.10
10986;DHT22;5546;48.714;8.738;2022-11-15T00:23:35;10.10;98.70
10986;DHT22;5546;48.714;8.738;2022-11-15T00:26:01;10.10;98.60
10986;DHT22;5546;48.714;8.738;2022-11-15T00:28:26;9.90;98.60
10986;DHT22;5546;48.714;8.738;2022-11-15T00:30:52;9.90;98.90
10986;DHT22;5546;48.714;8.738;2022-11-15T00:33:18;9.90;99.00
10986;DHT22;5546;48.714;8.738;2022-11-15T00:35:43;9.90;99.10
10986;DHT22;5546;48.714;8.738;2022-11-15T00:38:09;10.00;98.70
10986;DHT22;5546;48.714;8.738;2022-11-15T00:40:34;9.90;98.70
10986;DHT22;5546;48.714;8.738;2022-11-15T00:43:00;9.80;98.80
10986;DHT22;5546;48.714;8.738;2022-11-15T00:45:25;9.90;98.70
10986;DHT22;5546;48.714;8.738;2022-11-15T00:47:51;9.70;99.10
10986;DHT22;5546;48.714;8.738;2022-11-15T00:50:17;9.70;98.90
10986;DHT22;5546;48.714;8.738;2022-11-15T00:52:43;9.70;98.90
10986;DHT22;5546;48.714;8.738;2022-11-15T00:55:16;9.60;98.90
10986;DHT22;5546;48.714;8.738;2022-11-15T00:57:42;9.60;99.20
10986;DHT22;5546;48.714;8.738;2022-11-15T01:00:08;9.60;99.10
10986;DHT22;5546;48.714;8.738;2022-11-15T01:02:34;9.70;99.00
10986;DHT22;5546;48.714;8.738;2022-11-15T01:04:59;9.80;99.00
10986;DHT22;5546;48.714;8.738;2022-11-15T01:07:25;9.90;98.80
10986;DHT22;5546;48.714;8.738;2022-11-15T01:09:50;9.70;99.00
10986;DHT22;5546;48.714;8.738;2022-11-15T01:12:16;9.70;98.80
10986;DHT22;5546;48.714;8.738;2022-11-15T01:14:41;9.70;98.90
10986;DHT22;5546;48.714;8.738;2022-11-15T01:17:07;9.70;98.80
10986;DHT22;5546;48.714;8.738;2022-11-15T01:19:32;9.80;98.80
10986;DHT22;5546;48.714;8.738;2022-11-15T01:21:58;9.80;98.60
10986;DHT22;5546;48.714;8.738;2022-11-15T01:24:23;9.90;98.70
10986;DHT22;5546;48.714;8.738;2022-11-15T01:26:49;10.00;98.40
10986;DHT22;5546;48.714;8.738;2022-11-15T01:29:14;10.00;98.60
10986;DHT22;5546;48.714;8.738;2022-11-15T01:31:40;10.00;98.40
10986;DHT22;5546;48.714;8.738;2022-11-15T01:34:05;9.90;98.70
10986;DHT22;5546;48.714;8.738;2022-11-15T01:36:31;10.00;98.70
10986;DHT22;5546;48.714;8.738;2022-11-15T01:38:58;9.90;98.80
10986;DHT22;5546;48.714;8.738;2022-11-15T01:41:27;10.00;98.90
10986;DHT22;5546;48.714;8.738;2022-11-15T01:43:55;9.90;99.10
10986;DHT22;5546;48.714;8.738;2022-11-15T01:46:30;9.90;98.70
10986;DHT22;5546;48.714;8.738;2022-11-15T01:49:02;10.00;99.40
10986;DHT22;5546;48.714;8.738;2022-11-15T01:51:31;10.10;98.90
10986;DHT22;5546;48.714;8.738;2022-11-15T01:54:07;9.90;99.00
10986;DHT22;5546;48.714;8.738;2022-11-15T01:56:38;9.90;98.60
10986;DHT22;5546;48.714;8.738;2022-11-15T01:59:07;9.90;98.80
10986;DHT22;5546;48.714;8.738;2022-11-15T02:01:33;9.80;99.00
10986;DHT22;5546;48.714;8.738;2022-11-15T02:06:26;10.10;98.50
10986;DHT22;5546;48.714;8.738;2022-11-15T02:08:52;10.10;98.80
10986;DHT22;5546;48.714;8.738;2022-11-15T02:11:18;10.10;98.80
10986;DHT22;5546;48.714;8.738;2022-11-15T02:13:44;10.40;98.60
10986;DHT22;5546;48.714;8.738;2022-11-15T02:18:50;10.30;98.70
10986;DHT22;5546;48.714;8.738;2022-11-15T02:24:08;10.00;98.70
10986;DHT22;5546;48.714;8.738;2022-11-15T02:32:28;10.20;98.50
10986;DHT22;5546;48.714;8.738;2022-11-15T02:37:55;10.20;98.90
10986;DHT22;5546;48.714;8.738;2022-11-15T02:40:36;10.30;98.30
10986;DHT22;5546;48.714;8.738;2022-11-15T02:43:08;10.20;98.60
10986;DHT22;5546;48.714;8.738;2022-11-15T02:46:00;10.20;99.10
10986;DHT22;5546;48.714;8.738;2022-11-15T02:48:27;10.30;98.90
10986;DHT22;5546;48.714;8.738;2022-11-15T02:50:53;10.30;98.70
10986;DHT22;5546;48.714;8.738;2022-11-15T02:53:24;10.40;98.50
10986;DHT22;5546;48.714;8.738;2022-11-15T02:55:51;10.30;98.70
10986;DHT22;5546;48.714;8.738;2022-11-15T02:58:35;10.50;98.10
10986;DHT22;5546;48.714;8.738;2022-11-15T03:04:43;10.30;98.30
10986;DHT22;5546;48.714;8.738;2022-11-15T03:07:18;10.40;98.60
10986;DHT22;5546;48.714;8.738;2022-11-15T03:09:52;10.40;98.30
10986;DHT22;5546;48.714;8.738;2022-11-15T03:15:20;10.00;98.80
10986;DHT22;5546;48.714;8.738;2022-11-15T03:20:26;10.20;98.80
10986;DHT22;5546;48.714;8.738;2022-11-15T03:22:53;10.30;98.60
10986;DHT22;5546;48.714;8.738;2022-11-15T03:25:23;10.20;98.30
10986;DHT22;5546;48.714;8.738;2022-11-15T03:27:52;10.20;98.10
10986;DHT22;5546;48.714;8.738;2022-11-15T03:30:19;10.20;98.40
10986;DHT22;5546;48.714;8.738;2022-11-15T03:32:49;10.00;98.60
10986;DHT22;5546;48.714;8.738;2022-11-15T03:35:20;9.90;98.60
10986;DHT22;5546;48.714;8.738;2022-11-15T03:38:50;10.10;98.70
10986;DHT22;5546;48.714;8.738;2022-11-15T03:40:54;10.30;98.60
10986;DHT22;5546;48.714;8.738;2022-11-15T03:46:06;9.90;98.90
10986;DHT22;5546;48.714;8.738;2022-11-15T03:48:41;10.00;98.90
10986;DHT22;5546;48.714;8.738;2022-11-15T03:51:08;9.90;99.10
10986;DHT22;5546;48.714;8.738;2022-11-15T03:53:34;10.00;98.90
10986;DHT22;5546;48.714;8.738;2022-11-15T03:56:00;9.70;98.70
10986;DHT22;5546;48.714;8.738;2022-11-15T03:58:25;9.70;99.10
10986;DHT22;5546;48.714;8.738;2022-11-15T04:00:51;9.90;99.00
10986;DHT22;5546;48.714;8.738;2022-11-15T04:03:16;10.00;98.70
10986;DHT22;5546;48.714;8.738;2022-11-15T04:05:42;10.00;98.50
10986;DHT22;5546;48.714;8.738;2022-11-15T04:08:07;10.10;98.80
10986;DHT22;5546;48.714;8.738;2022-11-15T04:10:32;10.40;98.40
10986;DHT22;5546;48.714;8.738;2022-11-15T04:12:58;10.30;98.20
10986;DHT22;5546;48.714;8.738;2022-11-15T04:15:24;10.30;98.40
10986;DHT22;5546;48.714;8.738;2022-11-15T04:17:55;10.30;98.20
10986;DHT22;5546;48.714;8.738;2022-11-15T04:23:17;10.10;98.70
10986;DHT22;5546;48.714;8.738;2022-11-15T04:26:05;10.20;98.40
10986;DHT22;5546;48.714;8.738;2022-11-15T04:28:32;10.10;98.30
10986;DHT22;5546;48.714;8.738;2022-11-15T04:30:58;10.00;98.40
10986;DHT22;5546;48.714;8.738;2022-11-15T04:33:23;10.00;98.70
10986;DHT22;5546;48.714;8.738;2022-11-15T04:35:49;10.00;98.50
10986;DHT22;5546;48.714;8.738;2022-11-15T04:38:50;10.10;98.10
10986;DHT22;5546;48.714;8.738;2022-11-15T04:41:16;10.00;98.50
10986;DHT22;5546;48.714;8.738;2022-11-15T04:43:41;10.00;98.90
10986;DHT22;5546;48.714;8.738;2022-11-15T04:46:07;10.20;98.70
10986;DHT22;5546;48.714;8.738;2022-11-15T04:48:32;10.50;98.50
10986;DHT22;5546;48.714;8.738;2022-11-15T04:50:58;10.60;98.00
10986;DHT22;5546;48.714;8.738;2022-11-15T04:53:23;10.40;98.10
10986;DHT22;5546;48.714;8.738;2022-11-15T04:55:49;10.30;98.40
10986;DHT22;5546;48.714;8.738;2022-11-15T04:58:14;10.40;98.20
10986;DHT22;5546;48.714;8.738;2022-11-15T05:00:40;10.30;98.10
10986;DHT22;5546;48.714;8.738;2022-11-15T05:03:05;10.20;98.10
10986;DHT22;5546;48.714;8.738;2022-11-15T05:05:49;10.10;98.40
10986;DHT22;5546;48.714;8.738;2022-11-15T05:08:15;10.10;98.70
10986;DHT22;5546;48.714;8.738;2022-11-15T05:10:40;10.20;98.40
10986;DHT22;5546;48.714;8.738;2022-11-15T05:13:06;10.30;98.50
10986;DHT22;5546;48.714;8.738;2022-11-15T05:15:31;10.40;98.40
10986;DHT22;5546;48.714;8.738;2022-11-15T05:17:58;9.30;98.20
10986;DHT22;5546;48.714;8.738;2022-11-15T05:20:25;10.00;98.70
10986;DHT22;5546;48.714;8.738;2022-11-15T05:22:50;10.10;98.70
10986;DHT22;5546;48.714;8.738;2022-11-15T05:25:16;10.10;98.20
10986;DHT22;5546;48.714;8.738;2022-11-15T05:27:41;10.10;98.40
10986;DHT22;5546;48.714;8.738;2022-11-15T05:30:07;9.90;98.70
10986;DHT22;5546;48.714;8.738;2022-11-15T05:32:33;10.00;99.00
10986;DHT22;5546;48.714;8.738;2022-11-15T05:34:58;9.90;98.90
10986;DHT22;5546;48.714;8.738;2022-11-15T05:37:24;9.70;99.30
10986;DHT22;5546;48.714;8.738;2022-11-15T05:39:49;9.60;99.00
10986;DHT22;5546;48.714;8.738;2022-11-15T05:42:15;9.40;99.40
10986;DHT22;5546;48.714;8.738;2022-11-15T05:44:46;9.40;99.60
10986;DHT22;5546;48.714;8.738;2022-11-15T05:47:15;9.00;99.90
10986;DHT22;5546;48.714;8.738;2022-11-15T05:49:43;8.90;99.90
10986;DHT22;5546;48.714;8.738;2022-11-15T05:52:11;9.40;99.60
10986;DHT22;5546;48.714;8.738;2022-11-15T05:54:39;9.40;99.20
10986;DHT22;5546;48.714;8.738;2022-11-15T05:57:05;9.60;99.10
10986;DHT22;5546;48.714;8.738;2022-11-15T05:59:31;9.60;99.40
10986;DHT22;5546;48.714;8.738;2022-11-15T06:01:57;9.60;99.40
10986;DHT22;5546;48.714;8.738;2022-11-15T06:04:23;9.80;99.20
10986;DHT22;5546;48.714;8.738;2022-11-15T06:06:48;9.90;99.00
10986;DHT22;5546;48.714;8.738;2022-11-15T06:09:14;10.00;98.50
10986;DHT22;5546;48.714;8.738;2022-11-15T06:11:39;9.70;98.60
10986;DHT22;5546;48.714;8.738;2022-11-15T06:14:05;9.90;98.00
10986;DHT22;5546;48.714;8.738;2022-11-15T06:16:30;9.90;98.40
10986;DHT22;5546;48.714;8.738;2022-11-15T06:18:56;9.90;98.30
10986;DHT22;5546;48.714;8.738;2022-11-15T06:21:21;9.80;98.20
10986;DHT22;5546;48.714;8.738;2022-11-15T06:23:47;9.60;98.60
10986;DHT22;5546;48.714;8.738;2022-11-15T06:28:38;9.60;98.70
10986;DHT22;5546;48.714;8.738;2022-11-15T06:31:10;9.70;98.70
10986;DHT22;5546;48.714;8.738;2022-11-15T06:33:39;9.90;98.40
10986;DHT22;5546;48.714;8.738;2022-11-15T06:36:07;10.10;98.20
10986;DHT22;5546;48.714;8.738;2022-11-15T06:38:33;10.10;98.50
10986;DHT22;5546;48.714;8.738;2022-11-15T06:41:03;10.00;98.20
10986;DHT22;5546;48.714;8.738;2022-11-15T06:43:29;9.90;98.10
10986;DHT22;5546;48.714;8.738;2022-11-15T06:45:55;9.80;98.40
10986;DHT22;5546;48.714;8.738;2022-11-15T06:48:20;9.70;98.60
10986;DHT22;5546;48.714;8.738;2022-11-15T06:50:57;9.90;98.80
10986;DHT22;5546;48.714;8.738;2022-11-15T06:53:24;10.00;98.40
10986;DHT22;5546;48.714;8.738;2022-11-15T06:55:50;10.00;98.60
10986;DHT22;5546;48.714;8.738;2022-11-15T06:58:16;10.30;98.20
10986;DHT22;5546;48.714;8.738;2022-11-15T07:00:41;10.40;97.60
10986;DHT22;5546;48.714;8.738;2022-11-15T07:03:07;10.30;97.80
10986;DHT22;5546;48.714;8.738;2022-11-15T07:05:33;10.40;98.10
10986;DHT22;5546;48.714;8.738;2022-11-15T07:07:59;10.30;98.20
10986;DHT22;5546;48.714;8.738;2022-11-15T07:10:25;9.80;98.80
10986;DHT22;5546;48.714;8.738;2022-11-15T07:12:52;9.90;99.20
10986;DHT22;5546;48.714;8.738;2022-11-15T07:15:19;10.10;98.90
10986;DHT22;5546;48.714;8.738;2022-11-15T07:17:45;10.40;98.60
10986;DHT22;5546;48.714;8.738;2022-11-15T07:20:11;10.60;98.40
10986;DHT22;5546;48.714;8.738;2022-11-15T07:22:38;10.70;97.50
10986;DHT22;5546;48.714;8.738;2022-11-15T07:25:04;10.80;97.80
10986;DHT22;5546;48.714;8.738;2022-11-15T07:27:30;11.00;97.10
10986;DHT22;5546;48.714;8.738;2022-11-15T07:29:55;11.10;97.50
10986;DHT22;5546;48.714;8.738;2022-11-15T07:32:21;11.30;96.80
10986;DHT22;5546;48.714;8.738;2022-11-15T07:34:46;11.30;97.10
10986;DHT22;5546;48.714;8.738;2022-11-15T07:37:12;11.40;96.70
10986;DHT22;5546;48.714;8.738;2022-11-15T07:39:38;10.60;97.20
10986;DHT22;5546;48.714;8.738;2022-11-15T07:42:03;10.30;98.30
10986;DHT22;5546;48.714;8.738;2022-11-15T07:44:48;10.30;98.50
10986;DHT22;5546;48.714;8.738;2022-11-15T07:47:13;10.50;98.80
10986;DHT22;5546;48.714;8.738;2022-11-15T07:49:39;10.90;98.20
10986;DHT22;5546;48.714;8.738;2022-11-15T07:52:04;11.50;96.40
10986;DHT22;5546;48.714;8.738;2022-11-15T07:54:30;11.10;97.20
10986;DHT22;5546;48.714;8.738;2022-11-15T07:56:55;11.00;97.40
10986;DHT22;5546;48.714;8.738;2022-11-15T07:59:21;11.10;98.00
10986;DHT22;5546;48.714;8.738;2022-11-15T08:01:46;11.30;97.40
10986;DHT22;5546;48.714;8.738;2022-11-15T08:04:12;11.70;97.20
10986;DHT22;5546;48.714;8.738;2022-11-15T08:06:38;12.20;96.40
10986;DHT22;5546;48.714;8.738;2022-11-15T08:09:03;12.40;96.40
10986;DHT22;5546;48.714;8.738;2022-11-15T08:11:29;12.90;96.20
10986;DHT22;5546;48.714;8.738;2022-11-15T08:13:55;13.30;95.30
10986;DHT22;5546;48.714;8.738;2022-11-15T08:16:20;12.60;95.50
10986;DHT22;5546;48.714;8.738;2022-11-15T08:18:46;12.60;95.70
10986;DHT22;5546;48.714;8.738;2022-11-15T08:21:14;12.60;96.10
10986;DHT22;5546;48.714;8.738;2022-11-15T08:23:41;12.50;95.90
10986;DHT22;5546;48.714;8.738;2022-11-15T08:26:08;12.60;95.50
10986;DHT22;5546;48.714;8.738;2022-11-15T08:28:33;12.30;95.90
10986;DHT22;5546;48.714;8.738;2022-11-15T08:30:59;12.20;96.20
10986;DHT22;5546;48.714;8.738;2022-11-15T08:33:24;12.30;96.60
10986;DHT22;5546;48.714;8.738;2022-11-15T08:35:50;12.90;95.80
10986;DHT22;5546;48.714;8.738;2022-11-15T08:38:15;13.30;94.90
10986;DHT22;5546;48.714;8.738;2022-11-15T08:40:41;13.20;95.20
10986;DHT22;5546;48.714;8.738;2022-11-15T08:43:06;13.30;94.80
10986;DHT22;5546;48.714;8.738;2022-11-15T08:45:34;13.30;95.10
10986;DHT22;5546;48.714;8.738;2022-11-15T08:48:01;13.00;95.50
10986;DHT22;5546;48.714;8.738;2022-11-15T08:50:27;13.60;94.70
10986;DHT22;5546;48.714;8.738;2022-11-15T08:52:53;13.60;94.90
10986;DHT22;5546;48.714;8.738;2022-11-15T08:55:18;14.00;94.30
10986;DHT22;5546;48.714;8.738;2022-11-15T08:57:44;14.50;94.20
10986;DHT22;5546;48.714;8.738;2022-11-15T09:00:11;14.60;93.40
10986;DHT22;5546;48.714;8.738;2022-11-15T09:02:40;14.90;93.20
10986;DHT22;5546;48.714;8.738;2022-11-15T09:05:06;15.00;93.20
10986;DHT22;5546;48.714;8.738;2022-11-15T09:07:32;14.30;93.80
10986;DHT22;5546;48.714;8.738;2022-11-15T09:09:58;14.10;94.20
10986;DHT22;5546;48.714;8.738;2022-11-15T09:12:24;14.10;94.70
10986;DHT22;5546;48.714;8.738;2022-11-15T09:14:49;14.40;94.00
10986;DHT22;5546;48.714;8.738;2022-11-15T09:17:15;14.50;94.10
10986;DHT22;5546;48.714;8.738;2022-11-15T09:19:41;15.10;92.90
10986;DHT22;5546;48.714;8.738;2022-11-15T09:22:07;14.60;93.00
10986;DHT22;5546;48.714;8.738;2022-11-15T09:24:33;14.50;93.40
10986;DHT22;5546;48.714;8.738;2022-11-15T09:26:59;13.90;94.80
10986;DHT22;5546;48.714;8.738;2022-11-15T09:29:24;13.90;95.20
10986;DHT22;5546;48.714;8.738;2022-11-15T09:31:52;14.20;94.60
10986;DHT22;5546;48.714;8.738;2022-11-15T09:34:18;14.70;94.20
10986;DHT22;5546;48.714;8.738;2022-11-15T09:36:43;14.80;93.70
10986;DHT22;5546;48.714;8.738;2022-11-15T09:39:09;14.00;94.90
10986;DHT22;5546;48.714;8.738;2022-11-15T09:44:59;13.50;96.10
10986;DHT22;5546;48.714;8.738;2022-11-15T09:50:10;12.80;97.60
10986;DHT22;5546;48.714;8.738;2022-11-15T09:52:38;12.80;97.90
10986;DHT22;5546;48.714;8.738;2022-11-15T09:55:11;13.00;97.50
10986;DHT22;5546;48.714;8.738;2022-11-15T09:57:52;13.00;97.70
10986;DHT22;5546;48.714;8.738;2022-11-15T10:00:22;13.30;97.20
10986;DHT22;5546;48.714;8.738;2022-11-15T10:03:11;13.40;97.10
10986;DHT22;5546;48.714;8.738;2022-11-15T10:05:44;13.70;96.60
10986;DHT22;5546;48.714;8.738;2022-11-15T10:08:40;13.80;96.00
10986;DHT22;5546;48.714;8.738;2022-11-15T10:11:14;13.80;96.30
10986;DHT22;5546;48.714;8.738;2022-11-15T10:13:43;13.70;96.80
10986;DHT22;5546;48.714;8.738;2022-11-15T10:24:25;15.20;94.70
10986;DHT22;5546;48.714;8.738;2022-11-15T10:26:51;15.30;94.10
10986;DHT22;5546;48.714;8.738;2022-11-15T10:29:24;15.20;94.50
10986;DHT22;5546;48.714;8.738;2022-11-15T10:31:50;14.50;95.80
10986;DHT22;5546;48.714;8.738;2022-11-15T10:34:21;14.50;96.00
10986;DHT22;5546;48.714;8.738;2022-11-15T10:36:58;14.50;96.10
10986;DHT22;5546;48.714;8.738;2022-11-15T10:39:24;14.60;96.20
10986;DHT22;5546;48.714;8.738;2022-11-15T10:41:50;14.60;96.40
10986;DHT22;5546;48.714;8.738;2022-11-15T10:46:44;14.70;96.00
10986;DHT22;5546;48.714;8.738;2022-11-15T10:49:18;14.50;96.60
10986;DHT22;5546;48.714;8.738;2022-11-15T10:51:48;14.30;97.20
10986;DHT22;5546;48.714;8.738;2022-11-15T10:54:36;14.10;97.40
10986;DHT22;5546;48.714;8.738;2022-11-15T10:57:22;14.40;97.10
10986;DHT22;5546;48.714;8.738;2022-11-15T10:59:52;14.00;97.30
10986;DHT22;5546;48.714;8.738;2022-11-15T11:02:38;14.00;97.60
10986;DHT22;5546;48.714;8.738;2022-11-15T11:05:07;13.80;98.30
10986;DHT22;5546;48.714;8.738;2022-11-15T11:07:57;13.90;98.30
10986;DHT22;5546;48.714;8.738;2022-11-15T11:10:23;14.10;98.10
10986;DHT22;5546;48.714;8.738;2022-11-15T11:12:49;15.50;95.40
10986;DHT22;5546;48.714;8.738;2022-11-15T11:15:15;15.50;95.60
10986;DHT22;5546;48.714;8.738;2022-11-15T11:20:40;16.00;95.20
10986;DHT22;5546;48.714;8.738;2022-11-15T11:31:21;17.40;93.70
10986;DHT22;5546;48.714;8.738;2022-11-15T11:36:32;17.40;93.50
10986;DHT22;5546;48.714;8.738;2022-11-15T11:41:53;16.80;93.30
10986;DHT22;5546;48.714;8.738;2022-11-15T11:44:30;16.00;94.50
10986;DHT22;5546;48.714;8.738;2022-11-15T11:47:19;15.60;95.30
10986;DHT22;5546;48.714;8.738;2022-11-15T11:49:51;15.50;95.30
10986;DHT22;5546;48.714;8.738;2022-11-15T11:52:24;15.60;95.50
10986;DHT22;5546;48.714;8.738;2022-11-15T11:55:12;15.40;95.30
10986;DHT22;5546;48.714;8.738;2022-11-15T11:57:47;15.40;95.50
10986;DHT22;5546;48.714;8.738;2022-11-15T12:00:23;15.40;95.80
10986;DHT22;5546;48.714;8.738;2022-11-15T12:05:41;15.60;95.50
10986;DHT22;5546;48.714;8.738;2022-11-15T12:08:31;15.60;95.80
10986;DHT22;5546;48.714;8.738;2022-11-15T12:11:09;15.30;96.10
10986;DHT22;5546;48.714;8.738;2022-11-15T12:13:36;15.10;96.50
10986;DHT22;5546;48.714;8.738;2022-11-15T12:16:19;15.10;96.70
10986;DHT22;5546;48.714;8.738;2022-11-15T12:18:48;15.30;96.00
10986;DHT22;5546;48.714;8.738;2022-11-15T12:24:40;15.50;96.00
10986;DHT22;5546;48.714;8.738;2022-11-15T12:27:19;15.90;95.40
10986;DHT22;5546;48.714;8.738;2022-11-15T12:29:48;16.10;94.50
10986;DHT22;5546;48.714;8.738;2022-11-15T12:32:35;16.20;94.80
10986;DHT22;5546;48.714;8.738;2022-11-15T12:35:04;16.10;95.60
10986;DHT22;5546;48.714;8.738;2022-11-15T12:37:46;15.90;96.20
10986;DHT22;5546;48.714;8.738;2022-11-15T12:40:33;16.20;95.60
10986;DHT22;5546;48.714;8.738;2022-11-15T12:45:44;15.90;96.40
10986;DHT22;5546;48.714;8.738;2022-11-15T12:53:29;17.00;94.20
10986;DHT22;5546;48.714;8.738;2022-11-15T13:07:03;16.80;93.40
10986;DHT22;5546;48.714;8.738;2022-11-15T13:17:45;18.50;93.50
10986;DHT22;5546;48.714;8.738;2022-11-15T13:22:59;18.80;92.40
10986;DHT22;5546;48.714;8.738;2022-11-15T13:28:11;18.60;93.90
10986;DHT22;5546;48.714;8.738;2022-11-15T13:30:54;18.70;92.20
10986;DHT22;5546;48.714;8.738;2022-11-15T13:33:24;18.70;92.60
10986;DHT22;5546;48.714;8.738;2022-11-15T13:35:53;18.50;93.70
10986;DHT22;5546;48.714;8.738;2022-11-15T13:38:27;18.50;93.90
10986;DHT22;5546;48.714;8.738;2022-11-15T13:40:53;18.60;94.20
10986;DHT22;5546;48.714;8.738;2022-11-15T13:46:12;18.40;93.40
10986;DHT22;5546;48.714;8.738;2022-11-15T13:48:42;18.30;94.00
10986;DHT22;5546;48.714;8.738;2022-11-15T13:51:27;18.20;94.60
10986;DHT22;5546;48.714;8.738;2022-11-15T13:54:00;18.20;94.60
10986;DHT22;5546;48.714;8.738;2022-11-15T13:56:27;18.30;94.80
10986;DHT22;5546;48.714;8.738;2022-11-15T13:58:54;18.10;94.40
10986;DHT22;5546;48.714;8.738;2022-11-15T14:01:20;18.00;94.60
10986;DHT22;5546;48.714;8.738;2022-11-15T14:04:00;18.00;94.80
10986;DHT22;5546;48.714;8.738;2022-11-15T14:06:28;18.00;94.90
10986;DHT22;5546;48.714;8.738;2022-11-15T14:11:32;17.50;95.40
10986;DHT22;5546;48.714;8.738;2022-11-15T14:16:39;17.50;95.60
10986;DHT22;5546;48.714;8.738;2022-11-15T14:19:09;17.70;95.20
10986;DHT22;5546;48.714;8.738;2022-11-15T14:21:35;17.60;94.90
10986;DHT22;5546;48.714;8.738;2022-11-15T14:24:21;17.20;95.80
10986;DHT22;5546;48.714;8.738;2022-11-15T14:26:47;17.40;95.60
10986;DHT22;5546;48.714;8.738;2022-11-15T14:29:29;17.50;95.10
10986;DHT22;5546;48.714;8.738;2022-11-15T14:32:15;17.50;95.40
10986;DHT22;5546;48.714;8.738;2022-11-15T14:34:41;17.20;95.60
10986;DHT22;5546;48.714;8.738;2022-11-15T14:37:20;17.20;95.90
10986;DHT22;5546;48.714;8.738;2022-11-15T14:39:47;17.10;95.60
10986;DHT22;5546;48.714;8.738;2022-11-15T14:42:13;16.80;96.30
10986;DHT22;5546;48.714;8.738;2022-11-15T14:44:38;16.70;96.60
10986;DHT22;5546;48.714;8.738;2022-11-15T14:47:04;17.10;95.90
10986;DHT22;5546;48.714;8.738;2022-11-15T14:49:29;17.00;96.10
10986;DHT22;5546;48.714;8.738;2022-11-15T14:51:55;16.80;96.70
10986;DHT22;5546;48.714;8.738;2022-11-15T14:54:20;16.80;96.60
10986;DHT22;5546;48.714;8.738;2022-11-15T14:59:12;16.40;97.00
10986;DHT22;5546;48.714;8.738;2022-11-15T15:01:37;16.40;97.30
10986;DHT22;5546;48.714;8.738;2022-11-15T15:04:03;16.20;97.40
10986;DHT22;5546;48.714;8.738;2022-11-15T15:06:28;16.10;97.70
10986;DHT22;5546;48.714;8.738;2022-11-15T15:08:55;16.20;97.70
10986;DHT22;5546;48.714;8.738;2022-11-15T15:11:27;16.10;97.50
10986;DHT22;5546;48.714;8.738;2022-11-15T15:16:22;15.80;98.00
10986;DHT22;5546;48.714;8.738;2022-11-15T15:18:47;16.00;98.30
10986;DHT22;5546;48.714;8.738;2022-11-15T15:23:44;15.80;98.50
10986;DHT22;5546;48.714;8.738;2022-11-15T15:26:10;15.60;99.10
10986;DHT22;5546;48.714;8.738;2022-11-15T15:28:35;15.80;98.20
10986;DHT22;5546;48.714;8.738;2022-11-15T15:31:01;15.90;98.50
10986;DHT22;5546;48.714;8.738;2022-11-15T15:33:27;15.90;98.10
10986;DHT22;5546;48.714;8.738;2022-11-15T15:35:52;15.90;98.30
10986;DHT22;5546;48.714;8.738;2022-11-15T15:38:18;16.10;97.30
10986;DHT22;5546;48.714;8.738;2022-11-15T15:40:43;16.10;97.60
10986;DHT22;5546;48.714;8.738;2022-11-15T15:43:09;16.00;97.50
10986;DHT22;5546;48.714;8.738;2022-11-15T15:45:37;16.10;97.40
10986;DHT22;5546;48.714;8.738;2022-11-15T15:48:03;16.00;97.20
10986;DHT22;5546;48.714;8.738;2022-11-15T15:50:32;16.00;97.40
10986;DHT22;5546;48.714;8.738;2022-11-15T15:52:59;15.90;97.20
10986;DHT22;5546;48.714;8.738;2022-11-15T15:55:25;15.80;97.40
10986;DHT22;5546;48.714;8.738;2022-11-15T15:57:52;15.70;97.60
10986;DHT22;5546;48.714;8.738;2022-11-15T16:00:18;15.40;98.00
10986;DHT22;5546;48.714;8.738;2022-11-15T16:05:10;15.60;97.80
10986;DHT22;5546;48.714;8.738;2022-11-15T16:07:37;15.70;97.70
10986;DHT22;5546;48.714;8.738;2022-11-15T16:10:21;15.70;97.50
10986;DHT22;5546;48.714;8.738;2022-11-15T16:12:48;15.70;97.80
10986;DHT22;5546;48.714;8.738;2022-11-15T16:15:14;15.60;97.80
10986;DHT22;5546;48.714;8.738;2022-11-15T16:17:42;15.60;97.60
10986;DHT22;5546;48.714;8.738;2022-11-15T16:22:48;15.40;98.10
10986;DHT22;5546;48.714;8.738;2022-11-15T16:25:14;15.30;98.10
10986;DHT22;5546;48.714;8.738;2022-11-15T16:30:21;15.20;98.40
10986;DHT22;5546;48.714;8.738;2022-11-15T16:32:47;15.30;98.00
10986;DHT22;5546;48.714;8.738;2022-11-15T16:35:15;15.20;98.10
10986;DHT22;5546;48.714;8.738;2022-11-15T16:37:41;15.10;98.30
10986;DHT22;5546;48.714;8.738;2022-11-15T16:40:26;15.10;98.30
10986;DHT22;5546;48.714;8.738;2022-11-15T16:42:52;15.10;98.30
10986;DHT22;5546;48.714;8.738;2022-11-15T16:45:17;14.80;98.60
10986;DHT22;5546;48.714;8.738;2022-11-15T16:47:43;14.80;98.60
10986;DHT22;5546;48.714;8.738;2022-11-15T16:50:28;14.80;98.90
10986;DHT22;5546;48.714;8.738;2022-11-15T16:52:56;14.80;98.70
10986;DHT22;5546;48.714;8.738;2022-11-15T16:55:24;14.90;98.60
10986;DHT22;5546;48.714;8.738;2022-11-15T16:57:50;14.90;98.90
10986;DHT22;5546;48.714;8.738;2022-11-15T17:00:17;14.80;98.70
10986;DHT22;5546;48.714;8.738;2022-11-15T17:02:48;14.40;99.80
10986;DHT22;5546;48.714;8.738;2022-11-15T17:05:15;14.50;99.60
10986;DHT22;5546;48.714;8.738;2022-11-15T17:07:40;14.50;99.40
10986;DHT22;5546;48.714;8.738;2022-11-15T17:10:08;14.60;99.30
10986;DHT22;5546;48.714;8.738;2022-11-15T17:12:35;14.60;99.50
10986;DHT22;5546;48.714;8.738;2022-11-15T17:15:01;14.80;98.80
10986;DHT22;5546;48.714;8.738;2022-11-15T17:17:26;14.90;98.60
10986;DHT22;5546;48.714;8.738;2022-11-15T17:19:52;14.90;98.50
10986;DHT22;5546;48.714;8.738;2022-11-15T17:22:22;14.90;98.80
10986;DHT22;5546;48.714;8.738;2022-11-15T17:24:47;14.50;98.80
10986;DHT22;5546;48.714;8.738;2022-11-15T17:27:13;14.60;99.10
10986;DHT22;5546;48.714;8.738;2022-11-15T17:29:39;14.80;98.70
10986;DHT22;5546;48.714;8.738;2022-11-15T17:32:06;14.80;99.00
10986;DHT22;5546;48.714;8.738;2022-11-15T17:34:31;14.80;98.90
10986;DHT22;5546;48.714;8.738;2022-11-15T17:36:57;14.70;98.90
10986;DHT22;5546;48.714;8.738;2022-11-15T17:39:22;14.80;98.50
10986;DHT22;5546;48.714;8.738;2022-11-15T17:41:49;14.80;98.70
10986;DHT22;5546;48.714;8.738;2022-11-15T17:44:15;14.60;98.90
10986;DHT22;5546;48.714;8.738;2022-11-15T17:46:42;14.30;99.40
10986;DHT22;5546;48.714;8.738;2022-11-15T17:49:07;14.20;99.90
10986;DHT22;5546;48.714;8.738;2022-11-15T17:51:33;14.40;99.70
10986;DHT22;5546;48.714;8.738;2022-11-15T17:53:59;14.70;98.80
10986;DHT22;5546;48.714;8.738;2022-11-15T17:56:26;14.70;99.10
10986;DHT22;5546;48.714;8.738;2022-11-15T17:58:54;14.60;98.60
10986;DHT22;5546;48.714;8.738;2022-11-15T18:01:29;14.60;98.90
10986;DHT22;5546;48.714;8.738;2022-11-15T18:03:55;14.50;99.20
10986;DHT22;5546;48.714;8.738;2022-11-15T18:06:23;14.60;98.60
10986;DHT22;5546;48.714;8.738;2022-11-15T18:08:50;14.80;98.60